createdAt,value
2022-09-09T00:01:31.590Z,17.30
2022-09-09T00:04:05.307Z,17.30
2022-09-09T00:06:36.523Z,17.30
2022-09-09T00:09:12.453Z,17.30
2022-09-09T00:11:45.096Z,17.30
2022-09-09T00:14:23.917Z,17.20
2022-09-09T00:16:57.595Z,17.20
2022-09-09T00:19:33.155Z,17.20
2022-09-09T00:22:11.222Z,17.20
2022-09-09T00:24:45.596Z,17.20
2022-09-09T00:27:30.222Z,17.20
2022-09-09T00:30:02.561Z,17.10
2022-09-09T00:32:36.730Z,17.20
2022-09-09T00:35:13.806Z,17.10
2022-09-09T00:37:43.133Z,17.10
2022-09-09T00:40:24.182Z,17.10
2022-09-09T00:43:05.626Z,17.10
2022-09-09T00:46:10.134Z,17.10
2022-09-09T00:48:49.714Z,17.10
2022-09-09T00:51:26.023Z,17.10
2022-09-09T00:54:11.916Z,17.10
2022-09-09T00:56:45.761Z,17.00
2022-09-09T00:59:28.625Z,17.00
2022-09-09T01:01:57.196Z,17.00
2022-09-09T01:04:33.673Z,17.00
2022-09-09T01:07:13.630Z,17.00
2022-09-09T01:09:53.646Z,17.00
2022-09-09T01:12:32.384Z,17.00
2022-09-09T01:15:11.238Z,16.90
2022-09-09T01:17:52.528Z,16.90
2022-09-09T01:20:26.919Z,16.90
2022-09-09T01:23:19.459Z,16.90
2022-09-09T01:26:24.318Z,16.90
2022-09-09T01:28:54.803Z,16.90
2022-09-09T01:31:28.761Z,16.90
2022-09-09T01:33:57.137Z,16.80
2022-09-09T01:36:31.793Z,16.90
2022-09-09T01:39:00.478Z,16.80
2022-09-09T01:41:30.458Z,16.90
2022-09-09T01:43:59.703Z,16.80
2022-09-09T01:46:29.341Z,16.80
2022-09-09T01:48:58.539Z,16.80
2022-09-09T01:51:26.983Z,16.80
2022-09-09T01:53:55.297Z,16.80
2022-09-09T01:56:45.606Z,16.80
2022-09-09T01:59:33.800Z,16.80
2022-09-09T02:02:11.984Z,16.70
2022-09-09T02:04:43.495Z,16.70
2022-09-09T02:07:31.547Z,16.70
2022-09-09T02:10:07.819Z,16.70
2022-09-09T02:12:39.413Z,16.70
2022-09-09T02:15:14.830Z,16.70
2022-09-09T02:17:44.424Z,16.70
2022-09-09T02:20:15.881Z,16.70
2022-09-09T02:22:46.861Z,16.70
2022-09-09T02:25:19.409Z,16.70
2022-09-09T02:27:52.638Z,16.60
2022-09-09T02:30:21.976Z,16.70
2022-09-09T02:32:53.919Z,16.60
2022-09-09T02:35:27.647Z,16.60
2022-09-09T02:38:01.191Z,16.60
2022-09-09T02:40:29.581Z,16.60
2022-09-09T02:43:01.198Z,16.60
2022-09-09T02:45:36.902Z,16.60
2022-09-09T02:48:14.809Z,16.60
2022-09-09T02:50:54.854Z,16.60
2022-09-09T02:53:26.766Z,16.60
2022-09-09T02:55:59.284Z,16.60
2022-09-09T02:58:29.598Z,16.50
2022-09-09T03:00:59.713Z,16.50
2022-09-09T03:03:28.217Z,16.50
2022-09-09T03:05:56.493Z,16.50
2022-09-09T03:08:24.966Z,16.50
2022-09-09T03:10:55.066Z,16.50
2022-09-09T03:13:23.434Z,16.50
2022-09-09T03:15:53.576Z,16.50
2022-09-09T03:18:21.842Z,16.50
2022-09-09T03:20:50.678Z,16.50
2022-09-09T03:23:19.462Z,16.50
2022-09-09T03:25:51.340Z,16.50
2022-09-09T03:28:19.675Z,16.40
2022-09-09T03:30:48.263Z,16.40
2022-09-09T03:33:18.874Z,16.40
2022-09-09T03:35:49.916Z,16.40
2022-09-09T03:38:18.226Z,16.40
2022-09-09T03:40:52.364Z,16.40
2022-09-09T03:43:20.964Z,16.40
2022-09-09T03:45:49.604Z,16.40
2022-09-09T03:48:20.211Z,16.40
2022-09-09T03:50:49.236Z,16.40
2022-09-09T03:53:18.698Z,16.40
2022-09-09T03:55:47.655Z,16.40
2022-09-09T03:58:17.345Z,16.40
2022-09-09T04:00:46.119Z,16.40
2022-09-09T04:03:14.789Z,16.30
2022-09-09T04:05:44.470Z,16.30
2022-09-09T04:08:13.677Z,16.30
2022-09-09T04:10:43.127Z,16.30
2022-09-09T04:13:12.643Z,16.30
2022-09-09T04:15:41.817Z,16.30
2022-09-09T04:18:10.474Z,16.30
2022-09-09T04:20:38.820Z,16.30
2022-09-09T04:23:08.504Z,16.30
2022-09-09T04:25:36.842Z,16.20
2022-09-09T04:28:05.682Z,16.30
2022-09-09T04:30:35.990Z,16.20
2022-09-09T04:33:04.277Z,16.20
2022-09-09T04:35:32.590Z,16.20
2022-09-09T04:38:00.876Z,16.30
2022-09-09T04:40:30.582Z,16.20
2022-09-09T04:43:00.966Z,16.20
2022-09-09T04:45:29.541Z,16.30
2022-09-09T04:47:57.857Z,16.20
2022-09-09T04:50:26.730Z,16.20
2022-09-09T04:52:55.046Z,16.20
2022-09-09T04:55:23.321Z,16.20
2022-09-09T04:57:53.024Z,16.20
2022-09-09T05:00:21.485Z,16.20
2022-09-09T05:02:49.810Z,16.20
2022-09-09T05:05:19.722Z,16.20
2022-09-09T05:07:49.304Z,16.20
2022-09-09T05:10:19.314Z,16.20
2022-09-09T05:12:56.247Z,16.10
2022-09-09T05:15:24.624Z,16.20
2022-09-09T05:17:54.279Z,16.20
2022-09-09T05:20:22.577Z,16.10
2022-09-09T05:22:54.755Z,16.10
2022-09-09T05:25:23.281Z,16.20
2022-09-09T05:27:51.666Z,16.10
2022-09-09T05:30:21.635Z,16.20
2022-09-09T05:32:50.050Z,16.10
2022-09-09T05:35:20.192Z,16.10
2022-09-09T05:37:48.960Z,16.20
2022-09-09T05:40:17.473Z,16.10
2022-09-09T05:42:45.805Z,16.10
2022-09-09T05:45:14.115Z,16.10
2022-09-09T05:47:43.989Z,16.10
2022-09-09T05:50:12.354Z,16.10
2022-09-09T05:52:40.627Z,16.10
2022-09-09T05:55:10.309Z,16.10
2022-09-09T05:57:38.786Z,16.10
2022-09-09T06:00:08.103Z,16.20
2022-09-09T06:02:38.372Z,16.20
2022-09-09T06:05:09.512Z,16.20
2022-09-09T06:07:38.534Z,16.20
2022-09-09T06:10:08.156Z,16.20
2022-09-09T06:12:36.683Z,16.20
2022-09-09T06:15:05.650Z,16.20
2022-09-09T06:17:33.932Z,16.20
2022-09-09T06:20:02.285Z,16.20
2022-09-09T06:22:32.041Z,16.20
2022-09-09T06:25:01.173Z,16.20
2022-09-09T06:27:30.946Z,16.20
2022-09-09T06:29:59.236Z,16.30
2022-09-09T06:32:28.064Z,16.30
2022-09-09T06:34:56.343Z,16.30
2022-09-09T06:37:25.227Z,16.30
2022-09-09T06:39:55.957Z,16.30
2022-09-09T06:42:24.535Z,16.30
2022-09-09T06:44:53.394Z,16.30
2022-09-09T06:47:21.726Z,16.30
2022-09-09T06:49:49.968Z,16.30
2022-09-09T06:52:19.277Z,16.30
2022-09-09T06:54:47.686Z,16.30
2022-09-09T07:00:06.455Z,16.40
2022-09-09T07:02:40.088Z,16.40
2022-09-09T07:05:09.791Z,16.40
2022-09-09T07:07:38.902Z,16.40
2022-09-09T07:10:08.647Z,16.40
2022-09-09T07:12:38.496Z,16.50
2022-09-09T07:15:07.887Z,16.50
2022-09-09T07:17:36.410Z,16.50
2022-09-09T07:20:05.739Z,16.50
2022-09-09T07:22:34.210Z,16.50
2022-09-09T07:25:03.338Z,16.60
2022-09-09T07:27:31.825Z,16.50
2022-09-09T07:30:03.610Z,16.60
2022-09-09T07:32:32.632Z,16.60
2022-09-09T07:35:01.030Z,16.60
2022-09-09T07:37:29.298Z,16.60
2022-09-09T07:39:57.714Z,16.60
2022-09-09T07:42:26.038Z,16.70
2022-09-09T07:44:56.158Z,16.70
2022-09-09T07:47:25.954Z,16.70
2022-09-09T07:49:54.348Z,16.80
2022-09-09T07:52:22.645Z,16.80
2022-09-09T07:54:50.987Z,16.80
2022-09-09T07:57:19.724Z,16.90
2022-09-09T07:59:48.106Z,16.90
2022-09-09T08:02:16.391Z,16.90
2022-09-09T08:04:46.539Z,16.90
2022-09-09T08:07:14.997Z,17.00
2022-09-09T08:09:43.273Z,17.00
2022-09-09T08:12:14.056Z,17.00
2022-09-09T08:14:42.392Z,17.00
2022-09-09T08:17:11.128Z,17.10
2022-09-09T08:19:39.446Z,17.20
2022-09-09T08:22:09.952Z,17.20
2022-09-09T08:24:38.305Z,17.20
2022-09-09T08:27:06.714Z,17.20
2022-09-09T08:29:36.477Z,17.30
2022-09-09T08:32:05.512Z,17.30
2022-09-09T08:34:33.909Z,17.40
2022-09-09T08:37:02.225Z,17.40
2022-09-09T08:39:33.477Z,17.50
2022-09-09T08:42:28.843Z,17.50
2022-09-09T08:45:17.208Z,17.50
2022-09-09T08:47:55.167Z,17.60
2022-09-09T08:50:27.807Z,17.60
2022-09-09T08:53:02.732Z,17.70
2022-09-09T08:55:41.078Z,17.70
2022-09-09T08:58:15.124Z,17.70
2022-09-09T09:01:05.613Z,17.70
2022-09-09T09:03:43.452Z,17.70
2022-09-09T09:06:29.247Z,17.80
2022-09-09T09:09:03.754Z,17.80
2022-09-09T09:11:39.862Z,17.80
2022-09-09T09:14:12.745Z,17.80
2022-09-09T09:16:51.644Z,17.90
2022-09-09T09:19:23.807Z,17.90
2022-09-09T09:21:57.203Z,17.90
2022-09-09T09:24:33.545Z,17.90
2022-09-09T09:27:14.101Z,17.90
2022-09-09T09:30:10.107Z,17.90
2022-09-09T09:32:37.172Z,17.90
2022-09-09T09:35:11.877Z,17.90
2022-09-09T09:40:31.260Z,18.00
2022-09-09T09:43:07.451Z,18.00
2022-09-09T09:45:37.649Z,18.00
2022-09-09T09:48:13.833Z,18.00
2022-09-09T09:50:50.985Z,18.10
2022-09-09T09:53:24.875Z,18.10
2022-09-09T09:55:58.200Z,18.10
2022-09-09T09:58:29.601Z,18.10
2022-09-09T10:00:57.972Z,18.10
2022-09-09T10:03:28.821Z,18.10
2022-09-09T10:05:58.054Z,18.20
2022-09-09T10:08:28.136Z,18.20
2022-09-09T10:11:10.849Z,18.20
2022-09-09T10:13:51.556Z,18.20
2022-09-09T10:16:41.545Z,18.20
2022-09-09T10:19:16.097Z,18.30
2022-09-09T10:22:04.414Z,18.30
2022-09-09T10:25:13.672Z,18.30
2022-09-09T10:27:57.023Z,18.40
2022-09-09T10:30:35.795Z,18.40
2022-09-09T10:33:11.365Z,18.40
2022-09-09T10:35:47.436Z,18.40
2022-09-09T10:38:20.008Z,18.40
2022-09-09T10:41:07.106Z,18.40
2022-09-09T10:44:06.264Z,18.40
2022-09-09T10:46:45.965Z,18.50
2022-09-09T10:49:26.196Z,18.50
2022-09-09T10:52:03.939Z,18.50
2022-09-09T10:54:47.967Z,18.60
2022-09-09T10:57:25.252Z,18.50
2022-09-09T10:59:58.013Z,18.60
2022-09-09T11:02:30.722Z,18.60
2022-09-09T11:05:03.714Z,18.60
2022-09-09T11:07:39.295Z,18.60
2022-09-09T11:10:19.325Z,18.60
2022-09-09T11:12:49.819Z,18.70
2022-09-09T11:15:22.487Z,18.70
2022-09-09T11:17:57.691Z,18.70
2022-09-09T11:20:28.060Z,18.70
2022-09-09T11:23:01.730Z,18.70
2022-09-09T11:25:37.607Z,18.70
2022-09-09T11:28:23.520Z,18.80
2022-09-09T11:31:08.622Z,18.80
2022-09-09T11:34:11.864Z,18.80
2022-09-09T11:37:02.492Z,18.90
2022-09-09T11:40:06.349Z,18.90
2022-09-09T11:42:34.791Z,18.90
2022-09-09T11:45:14.145Z,18.90
2022-09-09T11:47:54.817Z,18.90
2022-09-09T11:50:37.593Z,19.00
2022-09-09T11:53:25.436Z,19.00
2022-09-09T11:56:08.501Z,19.00
2022-09-09T11:58:41.926Z,19.00
2022-09-09T12:01:39.843Z,19.10
2022-09-09T12:04:24.567Z,19.10
2022-09-09T12:06:58.326Z,19.10
2022-09-09T12:09:32.313Z,19.10
2022-09-09T12:12:24.914Z,19.20
2022-09-09T12:15:18.617Z,19.20
2022-09-09T12:17:48.548Z,19.20
2022-09-09T12:20:18.947Z,19.20
2022-09-09T12:23:06.246Z,19.30
2022-09-09T12:25:51.327Z,19.30
2022-09-09T12:28:22.417Z,19.30
2022-09-09T12:30:59.105Z,19.30
2022-09-09T12:33:35.673Z,19.30
2022-09-09T12:36:05.902Z,19.40
2022-09-09T12:38:38.391Z,19.40
2022-09-09T12:41:07.450Z,19.40
2022-09-09T12:43:35.795Z,19.40
2022-09-09T12:46:09.805Z,19.50
2022-09-09T12:48:42.488Z,19.50
2022-09-09T12:51:21.805Z,19.50
2022-09-09T12:53:51.580Z,19.50
2022-09-09T12:56:25.228Z,19.60
2022-09-09T12:58:55.861Z,19.60
2022-09-09T13:01:26.749Z,19.60
2022-09-09T13:03:55.813Z,19.70
2022-09-09T13:06:29.155Z,19.70
2022-09-09T13:09:01.352Z,19.70
2022-09-09T13:11:33.843Z,19.70
2022-09-09T13:14:02.904Z,19.70
2022-09-09T13:16:34.973Z,19.80
2022-09-09T13:19:10.956Z,19.80
2022-09-09T13:21:41.330Z,19.80
2022-09-09T13:24:30.783Z,19.80
2022-09-09T13:26:59.911Z,19.80
2022-09-09T13:29:28.245Z,19.80
2022-09-09T13:32:06.228Z,19.90
2022-09-09T13:34:36.527Z,19.90
2022-09-09T13:37:07.508Z,19.90
2022-09-09T13:39:39.563Z,19.90
2022-09-09T13:42:09.505Z,20.00
2022-09-09T13:44:41.291Z,20.00
2022-09-09T13:47:21.281Z,20.00
2022-09-09T13:49:49.699Z,20.00
2022-09-09T13:52:20.171Z,20.00
2022-09-09T13:54:52.241Z,20.00
2022-09-09T13:57:22.323Z,20.00
2022-09-09T14:00:06.749Z,20.00
2022-09-09T14:02:35.891Z,20.10
2022-09-09T14:05:04.488Z,20.10
2022-09-09T14:07:33.198Z,20.10
2022-09-09T14:10:02.877Z,20.10
2022-09-09T14:12:31.213Z,20.10
2022-09-09T14:15:00.802Z,20.10
2022-09-09T14:17:32.297Z,20.20
2022-09-09T14:20:01.186Z,20.20
2022-09-09T14:22:29.590Z,20.20
2022-09-09T14:24:58.717Z,20.20
2022-09-09T14:27:28.644Z,20.10
2022-09-09T14:29:57.185Z,20.20
2022-09-09T14:32:25.742Z,20.20
2022-09-09T14:34:54.293Z,20.20
2022-09-09T14:37:22.782Z,20.20
2022-09-09T14:39:51.782Z,20.20
2022-09-09T14:42:20.302Z,20.20
2022-09-09T14:44:50.047Z,20.30
2022-09-09T14:47:18.395Z,20.20
2022-09-09T14:49:47.352Z,20.30
2022-09-09T14:52:15.754Z,20.30
2022-09-09T14:54:44.295Z,20.30
2022-09-09T14:57:12.616Z,20.30
2022-09-09T14:59:41.046Z,20.20
2022-09-09T15:02:11.626Z,20.30
2022-09-09T15:04:40.460Z,20.30
2022-09-09T15:07:09.058Z,20.30
2022-09-09T15:09:38.351Z,20.30
2022-09-09T15:12:06.852Z,20.30
2022-09-09T15:14:36.319Z,20.30
2022-09-09T15:17:04.689Z,20.30
2022-09-09T15:19:34.539Z,20.30
2022-09-09T15:22:02.985Z,20.20
2022-09-09T15:24:31.323Z,20.20
2022-09-09T15:26:59.752Z,20.20
2022-09-09T15:29:28.752Z,20.30
2022-09-09T15:31:57.416Z,20.30
2022-09-09T15:34:26.598Z,20.30
2022-09-09T15:36:56.859Z,20.30
2022-09-09T15:39:25.344Z,20.20
2022-09-09T15:41:53.943Z,20.30
2022-09-09T15:44:23.299Z,20.30
2022-09-09T15:46:54.636Z,20.30
2022-09-09T15:49:26.570Z,20.20
2022-09-09T15:51:58.667Z,20.30
2022-09-09T15:54:28.524Z,20.20
2022-09-09T15:56:58.264Z,20.20
2022-09-09T15:59:28.891Z,20.20
2022-09-09T16:01:57.807Z,20.30
2022-09-09T16:04:26.716Z,20.20
2022-09-09T16:06:59.514Z,20.30
2022-09-09T16:09:28.674Z,20.30
2022-09-09T16:11:59.868Z,20.20
2022-09-09T16:14:28.394Z,20.20
2022-09-09T16:16:59.561Z,20.20
2022-09-09T16:19:27.952Z,20.30
2022-09-09T16:21:57.755Z,20.30
2022-09-09T16:24:26.809Z,20.30
2022-09-09T16:26:56.653Z,20.30
2022-09-09T16:29:28.421Z,20.30
2022-09-09T16:32:00.002Z,20.30
2022-09-09T16:34:31.846Z,20.30
2022-09-09T16:37:03.154Z,20.30
2022-09-09T16:39:31.636Z,20.40
2022-09-09T16:42:00.910Z,20.40
2022-09-09T16:44:31.083Z,20.40
2022-09-09T16:47:00.946Z,20.40
2022-09-09T16:49:30.140Z,20.40
2022-09-09T16:52:01.677Z,20.40
2022-09-09T16:54:30.107Z,20.40
2022-09-09T16:56:59.147Z,20.40
2022-09-09T16:59:27.659Z,20.40
2022-09-09T17:01:56.363Z,20.40
2022-09-09T17:04:29.058Z,20.40
2022-09-09T17:06:58.484Z,20.40
2022-09-09T17:09:30.293Z,20.40
2022-09-09T17:11:59.520Z,20.40
2022-09-09T17:14:27.975Z,20.40
2022-09-09T17:17:02.084Z,20.40
2022-09-09T17:19:42.202Z,20.40
2022-09-09T17:22:17.141Z,20.40
2022-09-09T17:24:47.612Z,20.30
2022-09-09T17:27:15.929Z,20.30
2022-09-09T17:29:44.269Z,20.30
2022-09-09T17:32:12.674Z,20.30
2022-09-09T17:34:41.022Z,20.30
2022-09-09T17:37:09.304Z,20.30
2022-09-09T17:39:37.881Z,20.20
2022-09-09T17:42:08.468Z,20.30
2022-09-09T17:44:36.775Z,20.20
2022-09-09T17:47:07.241Z,20.20
2022-09-09T17:49:35.835Z,20.20
2022-09-09T17:52:04.641Z,20.20
2022-09-09T17:54:34.693Z,20.20
2022-09-09T17:57:03.079Z,20.20
2022-09-09T17:59:32.784Z,20.10
2022-09-09T18:02:02.023Z,20.10
2022-09-09T18:04:30.416Z,20.10
2022-09-09T18:06:59.358Z,20.10
2022-09-09T18:09:29.280Z,20.00
2022-09-09T18:12:00.327Z,20.00
2022-09-09T18:14:31.431Z,20.00
2022-09-09T18:17:02.335Z,20.00
2022-09-09T18:19:34.610Z,19.90
2022-09-09T18:22:05.492Z,19.90
2022-09-09T18:24:34.352Z,19.90
2022-09-09T18:27:02.698Z,19.90
2022-09-09T18:29:31.300Z,19.80
2022-09-09T18:32:01.071Z,19.80
2022-09-09T18:34:30.377Z,19.80
2022-09-09T18:36:58.955Z,19.80
2022-09-09T18:39:29.871Z,19.80
2022-09-09T18:42:00.770Z,19.80
2022-09-09T18:44:32.586Z,19.70
2022-09-09T18:47:03.383Z,19.70
2022-09-09T18:49:33.378Z,19.70
2022-09-09T18:52:02.858Z,19.60
2022-09-09T18:54:33.600Z,19.70
2022-09-09T18:57:04.050Z,19.60
2022-09-09T18:59:32.435Z,19.60
2022-09-09T19:02:02.226Z,19.60
2022-09-09T19:04:33.256Z,19.60
2022-09-09T19:07:01.625Z,19.60
2022-09-09T19:09:34.151Z,19.50
2022-09-09T19:12:03.413Z,19.50
2022-09-09T19:14:31.955Z,19.60
2022-09-09T19:17:01.825Z,19.50
2022-09-09T19:19:32.124Z,19.50
2022-09-09T19:22:01.806Z,19.50
2022-09-09T19:24:32.608Z,19.50
2022-09-09T19:27:03.010Z,19.50
2022-09-09T19:29:33.427Z,19.50
2022-09-09T19:32:49.726Z,19.40
2022-09-09T19:34:52.621Z,19.40
2022-09-09T19:37:22.752Z,19.40
2022-09-09T19:39:51.546Z,19.40
2022-09-09T19:42:20.422Z,19.40
2022-09-09T19:44:50.235Z,19.40
2022-09-09T19:47:20.547Z,19.40
2022-09-09T19:49:50.556Z,19.40
2022-09-09T19:52:19.787Z,19.30
2022-09-09T19:54:48.252Z,19.30
2022-09-09T19:57:16.691Z,19.30
2022-09-09T19:59:45.481Z,19.30
2022-09-09T20:02:16.017Z,19.30
2022-09-09T20:04:45.871Z,19.30
2022-09-09T20:07:14.958Z,19.30
2022-09-09T20:09:43.475Z,19.20
2022-09-09T20:12:11.875Z,19.20
2022-09-09T20:14:40.511Z,19.20
2022-09-09T20:17:10.374Z,19.10
2022-09-09T20:19:39.953Z,19.20
2022-09-09T20:22:10.010Z,19.10
2022-09-09T20:24:38.293Z,19.10
2022-09-09T20:27:08.277Z,19.10
2022-09-09T20:29:39.363Z,19.10
2022-09-09T20:32:08.037Z,19.10
2022-09-09T20:34:36.692Z,19.10
2022-09-09T20:37:06.040Z,19.10
2022-09-09T20:39:37.238Z,19.00
2022-09-09T20:42:06.106Z,19.00
2022-09-09T20:44:34.566Z,19.00
2022-09-09T20:47:06.609Z,19.00
2022-09-09T20:49:36.242Z,19.00
2022-09-09T20:52:05.030Z,19.00
2022-09-09T20:54:35.296Z,19.00
2022-09-09T20:57:07.237Z,18.90
2022-09-09T20:59:35.919Z,18.90
2022-09-09T21:02:04.628Z,18.90
2022-09-09T21:04:33.056Z,18.90
2022-09-09T21:07:02.454Z,18.90
2022-09-09T21:09:31.135Z,18.90
2022-09-09T21:11:59.456Z,18.90
2022-09-09T21:14:29.130Z,18.90
2022-09-09T21:16:57.937Z,18.90
2022-09-09T21:19:26.339Z,18.90
2022-09-09T21:21:54.596Z,18.90
2022-09-09T21:24:22.878Z,18.80
2022-09-09T21:26:51.203Z,18.80
2022-09-09T21:29:19.503Z,18.80
2022-09-09T21:31:49.592Z,18.80
2022-09-09T21:34:18.527Z,18.80
2022-09-09T21:36:46.843Z,18.80
2022-09-09T21:39:15.438Z,18.80
2022-09-09T21:41:43.791Z,18.80
2022-09-09T21:44:14.479Z,18.80
2022-09-09T21:46:44.069Z,18.70
2022-09-09T21:49:14.179Z,18.70
2022-09-09T21:51:42.464Z,18.70
2022-09-09T21:54:10.887Z,18.70
2022-09-09T21:56:39.678Z,18.70
2022-09-09T21:59:08.241Z,18.70
2022-09-09T22:01:36.682Z,18.70
2022-09-09T22:04:05.332Z,18.70
2022-09-09T22:06:35.407Z,18.70
2022-09-09T22:09:03.930Z,18.70
2022-09-09T22:11:35.171Z,18.70
2022-09-09T22:14:03.828Z,18.70
2022-09-09T22:16:32.463Z,18.60
2022-09-09T22:19:02.483Z,18.60
2022-09-09T22:21:32.276Z,18.60
2022-09-09T22:24:03.629Z,18.60
2022-09-09T22:26:34.657Z,18.60
2022-09-09T22:29:04.074Z,18.60
2022-09-09T22:31:33.306Z,18.60
2022-09-09T22:34:01.628Z,18.60
2022-09-09T22:36:29.981Z,18.50
2022-09-09T22:38:58.276Z,18.50
2022-09-09T22:41:30.073Z,18.50
2022-09-09T22:43:59.021Z,18.50
2022-09-09T22:46:27.375Z,18.50
2022-09-09T22:48:55.714Z,18.40
2022-09-09T22:51:24.026Z,18.50
2022-09-09T22:53:52.277Z,18.40
2022-09-09T22:56:21.410Z,18.40
2022-09-09T22:58:55.949Z,18.40
2022-09-09T23:01:25.871Z,18.40
2022-09-09T23:03:59.246Z,18.40
2022-09-09T23:06:29.764Z,18.40
2022-09-09T23:09:00.104Z,18.40
2022-09-09T23:11:31.819Z,18.40
2022-09-09T23:14:03.601Z,18.30
2022-09-09T23:16:34.513Z,18.30
2022-09-09T23:19:03.245Z,18.30
2022-09-09T23:21:32.534Z,18.30
2022-09-09T23:24:01.255Z,18.30
2022-09-09T23:26:30.030Z,18.20
2022-09-09T23:28:59.506Z,18.30
2022-09-09T23:31:33.006Z,18.30
2022-09-09T23:34:02.419Z,18.30
2022-09-09T23:36:31.821Z,18.20
2022-09-09T23:39:02.176Z,18.20
2022-09-09T23:41:31.319Z,18.20
2022-09-09T23:43:59.646Z,18.20
2022-09-09T23:46:30.140Z,18.20
2022-09-09T23:48:59.147Z,18.20
2022-09-09T23:51:30.656Z,18.10
2022-09-09T23:54:01.963Z,18.10
2022-09-09T23:56:32.428Z,18.10
2022-09-09T23:59:00.800Z,18.10
